sensor_id;sensor_type;location;lat;lon;timestamp;pressure;altitude;pressure_sealevel;temperature;humidity
41706;BME280;27385;51.096;17.190;2023-03-23T00:00:45;99681.48;;;8.95;75.01
41706;BME280;27385;51.096;17.190;2023-03-23T00:03:17;99680.39;;;8.93;75.01
41706;BME280;27385;51.096;17.190;2023-03-23T00:05:50;99677.60;;;8.93;75.16
41706;BME280;27385;51.096;17.190;2023-03-23T00:08:22;99671.59;;;8.93;75.28
41706;BME280;27385;51.096;17.190;2023-03-23T00:10:54;99669.48;;;8.92;75.22
41706;BME280;27385;51.096;17.190;2023-03-23T00:13:26;99674.59;;;8.91;75.32
41706;BME280;27385;51.096;17.190;2023-03-23T00:15:58;99672.75;;;8.90;75.25
41706;BME280;27385;51.096;17.190;2023-03-23T00:18:29;99669.36;;;8.90;75.32
41706;BME280;27385;51.096;17.190;2023-03-23T00:21:00;99673.20;;;8.89;75.55
41706;BME280;27385;51.096;17.190;2023-03-23T00:23:33;99671.45;;;8.88;75.63
41706;BME280;27385;51.096;17.190;2023-03-23T00:26:05;99674.66;;;8.86;75.57
41706;BME280;27385;51.096;17.190;2023-03-23T00:28:36;99671.60;;;8.85;75.70
41706;BME280;27385;51.096;17.190;2023-03-23T00:31:09;99666.77;;;8.83;75.93
41706;BME280;27385;51.096;17.190;2023-03-23T00:33:41;99674.98;;;8.81;76.12
41706;BME280;27385;51.096;17.190;2023-03-23T00:36:13;99672.50;;;8.79;76.25
41706;BME280;27385;51.096;17.190;2023-03-23T00:38:44;99669.67;;;8.76;76.15
41706;BME280;27385;51.096;17.190;2023-03-23T00:41:16;99664.98;;;8.74;76.38
41706;BME280;27385;51.096;17.190;2023-03-23T00:43:47;99660.77;;;8.74;76.50
41706;BME280;27385;51.096;17.190;2023-03-23T00:46:18;99656.05;;;8.73;76.64
41706;BME280;27385;51.096;17.190;2023-03-23T00:48:50;99658.00;;;8.71;76.65
41706;BME280;27385;51.096;17.190;2023-03-23T00:51:21;99653.72;;;8.69;76.78
41706;BME280;27385;51.096;17.190;2023-03-23T00:53:52;99655.01;;;8.67;77.09
41706;BME280;27385;51.096;17.190;2023-03-23T00:56:23;99652.59;;;8.65;77.00
41706;BME280;27385;51.096;17.190;2023-03-23T00:58:55;99658.44;;;8.64;77.13
41706;BME280;27385;51.096;17.190;2023-03-23T01:01:26;99658.63;;;8.64;77.17
41706;BME280;27385;51.096;17.190;2023-03-23T01:03:59;99655.60;;;8.64;77.24
41706;BME280;27385;51.096;17.190;2023-03-23T01:06:34;99649.25;;;8.65;77.21
41706;BME280;27385;51.096;17.190;2023-03-23T01:09:10;99642.40;;;8.67;77.36
41706;BME280;27385;51.096;17.190;2023-03-23T01:11:44;99640.86;;;8.69;77.36
41706;BME280;27385;51.096;17.190;2023-03-23T01:14:17;99642.42;;;8.71;77.35
41706;BME280;27385;51.096;17.190;2023-03-23T01:16:49;99639.11;;;8.73;77.37
41706;BME280;27385;51.096;17.190;2023-03-23T01:19:19;99635.18;;;8.74;77.43
41706;BME280;27385;51.096;17.190;2023-03-23T01:21:50;99635.48;;;8.74;77.62
41706;BME280;27385;51.096;17.190;2023-03-23T01:24:21;99642.59;;;8.72;77.91
41706;BME280;27385;51.096;17.190;2023-03-23T01:26:52;99642.45;;;8.70;77.83
41706;BME280;27385;51.096;17.190;2023-03-23T01:29:23;99639.17;;;8.71;77.91
41706;BME280;27385;51.096;17.190;2023-03-23T01:31:54;99633.48;;;8.72;78.00
41706;BME280;27385;51.096;17.190;2023-03-23T01:34:25;99630.13;;;8.72;78.13
41706;BME280;27385;51.096;17.190;2023-03-23T01:36:56;99628.52;;;8.72;78.10
41706;BME280;27385;51.096;17.190;2023-03-23T01:39:27;99627.50;;;8.72;78.23
41706;BME280;27385;51.096;17.190;2023-03-23T01:41:58;99631.59;;;8.71;78.35
41706;BME280;27385;51.096;17.190;2023-03-23T01:47:46;99624.55;;;8.70;78.45
41706;BME280;27385;51.096;17.190;2023-03-23T01:50:17;99621.17;;;8.71;78.56
41706;BME280;27385;51.096;17.190;2023-03-23T01:52:50;99616.21;;;8.71;78.64
41706;BME280;27385;51.096;17.190;2023-03-23T01:55:22;99617.39;;;8.72;78.96
41706;BME280;27385;51.096;17.190;2023-03-23T01:57:55;99618.23;;;8.71;78.78
41706;BME280;27385;51.096;17.190;2023-03-23T02:00:27;99609.04;;;8.72;78.86
41706;BME280;27385;51.096;17.190;2023-03-23T02:02:58;99610.83;;;8.73;79.04
41706;BME280;27385;51.096;17.190;2023-03-23T02:05:33;99609.35;;;8.72;79.08
41706;BME280;27385;51.096;17.190;2023-03-23T02:08:07;99609.02;;;8.71;79.01
41706;BME280;27385;51.096;17.190;2023-03-23T02:10:39;99605.38;;;8.71;78.87
41706;BME280;27385;51.096;17.190;2023-03-23T02:13:11;99601.50;;;8.72;78.89
41706;BME280;27385;51.096;17.190;2023-03-23T02:15:49;99596.15;;;8.72;79.17
41706;BME280;27385;51.096;17.190;2023-03-23T02:18:35;99590.48;;;8.73;79.15
41706;BME280;27385;51.096;17.190;2023-03-23T02:21:26;99585.27;;;8.72;79.19
41706;BME280;27385;51.096;17.190;2023-03-23T02:24:23;99589.50;;;8.72;79.39
41706;BME280;27385;51.096;17.190;2023-03-23T02:27:03;99589.80;;;8.71;79.35
41706;BME280;27385;51.096;17.190;2023-03-23T02:35:37;99591.46;;;8.68;79.50
41706;BME280;27385;51.096;17.190;2023-03-23T02:38:15;99592.19;;;8.69;79.28
41706;BME280;27385;51.096;17.190;2023-03-23T02:40:48;99588.02;;;8.71;79.21
41706;BME280;27385;51.096;17.190;2023-03-23T02:43:22;99585.58;;;8.72;79.25
41706;BME280;27385;51.096;17.190;2023-03-23T02:45:55;99575.69;;;8.74;79.33
41706;BME280;27385;51.096;17.190;2023-03-23T02:48:30;99569.38;;;8.76;79.47
41706;BME280;27385;51.096;17.190;2023-03-23T02:51:03;99569.30;;;8.77;79.80
41706;BME280;27385;51.096;17.190;2023-03-23T02:53:36;99573.65;;;8.77;79.86
41706;BME280;27385;51.096;17.190;2023-03-23T02:56:09;99576.89;;;8.77;79.75
41706;BME280;27385;51.096;17.190;2023-03-23T02:58:42;99576.23;;;8.77;79.90
41706;BME280;27385;51.096;17.190;2023-03-23T03:04:05;99580.00;;;8.79;79.93
41706;BME280;27385;51.096;17.190;2023-03-23T03:06:44;99574.52;;;8.81;79.93
41706;BME280;27385;51.096;17.190;2023-03-23T03:09:24;99581.65;;;8.84;80.13
41706;BME280;27385;51.096;17.190;2023-03-23T03:12:01;99582.44;;;8.85;80.11
41706;BME280;27385;51.096;17.190;2023-03-23T03:14:38;99585.45;;;8.87;80.20
41706;BME280;27385;51.096;17.190;2023-03-23T03:17:16;99584.17;;;8.90;80.25
41706;BME280;27385;51.096;17.190;2023-03-23T03:19:52;99584.36;;;8.92;80.23
41706;BME280;27385;51.096;17.190;2023-03-23T03:22:26;99576.45;;;8.94;80.20
41706;BME280;27385;51.096;17.190;2023-03-23T03:25:01;99578.55;;;8.96;80.34
41706;BME280;27385;51.096;17.190;2023-03-23T03:27:32;99576.77;;;8.99;80.26
41706;BME280;27385;51.096;17.190;2023-03-23T03:30:07;99574.47;;;9.01;80.25
41706;BME280;27385;51.096;17.190;2023-03-23T03:32:44;99565.98;;;9.02;80.44
41706;BME280;27385;51.096;17.190;2023-03-23T03:35:18;99562.66;;;9.03;80.24
41706;BME280;27385;51.096;17.190;2023-03-23T03:37:50;99558.94;;;9.06;80.37
41706;BME280;27385;51.096;17.190;2023-03-23T03:40:25;99554.71;;;9.07;80.10
41706;BME280;27385;51.096;17.190;2023-03-23T03:42:56;99554.39;;;9.10;80.36
41706;BME280;27385;51.096;17.190;2023-03-23T03:45:26;99549.55;;;9.11;80.40
41706;BME280;27385;51.096;17.190;2023-03-23T03:47:57;99547.48;;;9.13;80.38
41706;BME280;27385;51.096;17.190;2023-03-23T03:50:28;99546.23;;;9.14;80.29
41706;BME280;27385;51.096;17.190;2023-03-23T03:52:59;99550.98;;;9.16;80.26
41706;BME280;27385;51.096;17.190;2023-03-23T03:55:30;99544.22;;;9.18;80.29
41706;BME280;27385;51.096;17.190;2023-03-23T03:58:04;99547.05;;;9.21;80.15
41706;BME280;27385;51.096;17.190;2023-03-23T04:00:37;99539.54;;;9.23;80.26
41706;BME280;27385;51.096;17.190;2023-03-23T04:03:08;99541.39;;;9.26;80.20
41706;BME280;27385;51.096;17.190;2023-03-23T04:05:39;99538.07;;;9.28;80.32
41706;BME280;27385;51.096;17.190;2023-03-23T04:08:11;99535.52;;;9.29;80.10
41706;BME280;27385;51.096;17.190;2023-03-23T04:10:41;99543.85;;;9.32;79.99
41706;BME280;27385;51.096;17.190;2023-03-23T04:13:12;99545.60;;;9.34;80.02
41706;BME280;27385;51.096;17.190;2023-03-23T04:15:44;99549.20;;;9.36;80.03
41706;BME280;27385;51.096;17.190;2023-03-23T04:18:16;99552.37;;;9.38;79.92
41706;BME280;27385;51.096;17.190;2023-03-23T04:20:48;99553.52;;;9.39;79.99
41706;BME280;27385;51.096;17.190;2023-03-23T04:23:21;99549.54;;;9.41;79.70
41706;BME280;27385;51.096;17.190;2023-03-23T04:25:52;99545.52;;;9.43;79.73
41706;BME280;27385;51.096;17.190;2023-03-23T04:28:27;99544.27;;;9.45;79.67
41706;BME280;27385;51.096;17.190;2023-03-23T04:30:58;99549.02;;;9.48;79.67
41706;BME280;27385;51.096;17.190;2023-03-23T04:33:30;99546.95;;;9.50;79.69
41706;BME280;27385;51.096;17.190;2023-03-23T04:36:02;99551.21;;;9.50;79.73
41706;BME280;27385;51.096;17.190;2023-03-23T04:38:35;99554.22;;;9.51;79.71
41706;BME280;27385;51.096;17.190;2023-03-23T04:41:06;99552.73;;;9.53;79.72
41706;BME280;27385;51.096;17.190;2023-03-23T04:43:37;99551.83;;;9.55;79.64
41706;BME280;27385;51.096;17.190;2023-03-23T04:46:11;99549.94;;;9.57;79.66
41706;BME280;27385;51.096;17.190;2023-03-23T04:48:47;99555.44;;;9.60;79.52
41706;BME280;27385;51.096;17.190;2023-03-23T04:51:18;99548.23;;;9.64;79.67
41706;BME280;27385;51.096;17.190;2023-03-23T04:53:49;99544.95;;;9.68;79.44
41706;BME280;27385;51.096;17.190;2023-03-23T04:56:21;99545.67;;;9.74;79.44
41706;BME280;27385;51.096;17.190;2023-03-23T04:58:51;99547.45;;;9.79;79.42
41706;BME280;27385;51.096;17.190;2023-03-23T05:01:23;99544.06;;;9.85;79.29
41706;BME280;27385;51.096;17.190;2023-03-23T05:03:57;99545.33;;;9.90;79.12
41706;BME280;27385;51.096;17.190;2023-03-23T05:06:29;99544.25;;;9.93;79.09
41706;BME280;27385;51.096;17.190;2023-03-23T05:09:00;99540.38;;;9.96;79.09
41706;BME280;27385;51.096;17.190;2023-03-23T05:11:32;99539.20;;;10.00;78.95
41706;BME280;27385;51.096;17.190;2023-03-23T05:14:04;99536.30;;;10.04;78.85
41706;BME280;27385;51.096;17.190;2023-03-23T05:16:36;99534.52;;;10.09;78.68
41706;BME280;27385;51.096;17.190;2023-03-23T05:19:07;99529.92;;;10.13;78.79
41706;BME280;27385;51.096;17.190;2023-03-23T05:21:38;99529.77;;;10.16;78.66
41706;BME280;27385;51.096;17.190;2023-03-23T05:24:09;99528.97;;;10.19;78.77
41706;BME280;27385;51.096;17.190;2023-03-23T05:26:40;99528.39;;;10.22;78.71
41706;BME280;27385;51.096;17.190;2023-03-23T05:29:11;99528.91;;;10.25;78.66
41706;BME280;27385;51.096;17.190;2023-03-23T05:31:42;99529.91;;;10.28;78.44
41706;BME280;27385;51.096;17.190;2023-03-23T05:34:13;99528.42;;;10.31;78.26
41706;BME280;27385;51.096;17.190;2023-03-23T05:36:47;99527.33;;;10.34;78.26
41706;BME280;27385;51.096;17.190;2023-03-23T05:39:18;99526.71;;;10.38;78.21
41706;BME280;27385;51.096;17.190;2023-03-23T05:41:49;99517.23;;;10.42;77.89
41706;BME280;27385;51.096;17.190;2023-03-23T05:44:21;99520.52;;;10.46;77.88
41706;BME280;27385;51.096;17.190;2023-03-23T05:46:52;99521.42;;;10.50;77.88
41706;BME280;27385;51.096;17.190;2023-03-23T05:49:23;99530.54;;;10.54;77.80
41706;BME280;27385;51.096;17.190;2023-03-23T05:51:56;99524.73;;;10.59;77.70
41706;BME280;27385;51.096;17.190;2023-03-23T05:54:28;99526.53;;;10.63;77.64
41706;BME280;27385;51.096;17.190;2023-03-23T05:56:59;99529.88;;;10.68;77.44
41706;BME280;27385;51.096;17.190;2023-03-23T05:59:31;99522.60;;;10.74;77.42
41706;BME280;27385;51.096;17.190;2023-03-23T06:02:02;99533.60;;;10.79;77.29
41706;BME280;27385;51.096;17.190;2023-03-23T06:04:34;99532.36;;;10.83;77.20
41706;BME280;27385;51.096;17.190;2023-03-23T06:07:07;99535.77;;;10.87;77.20
41706;BME280;27385;51.096;17.190;2023-03-23T06:09:42;99529.31;;;10.89;77.10
41706;BME280;27385;51.096;17.190;2023-03-23T06:12:13;99527.55;;;10.93;76.94
41706;BME280;27385;51.096;17.190;2023-03-23T06:14:43;99516.29;;;10.96;76.73
41706;BME280;27385;51.096;17.190;2023-03-23T06:17:15;99511.19;;;11.00;76.72
41706;BME280;27385;51.096;17.190;2023-03-23T06:19:46;99510.14;;;11.04;76.66
41706;BME280;27385;51.096;17.190;2023-03-23T06:22:19;99511.84;;;11.08;76.72
41706;BME280;27385;51.096;17.190;2023-03-23T06:24:51;99519.13;;;11.14;76.56
41706;BME280;27385;51.096;17.190;2023-03-23T06:27:21;99519.63;;;11.20;76.27
41706;BME280;27385;51.096;17.190;2023-03-23T06:29:54;99519.71;;;11.28;76.16
41706;BME280;27385;51.096;17.190;2023-03-23T06:32:29;99516.40;;;11.38;76.04
41706;BME280;27385;51.096;17.190;2023-03-23T06:35:02;99516.09;;;11.50;75.67
41706;BME280;27385;51.096;17.190;2023-03-23T06:37:34;99507.98;;;11.61;75.84
41706;BME280;27385;51.096;17.190;2023-03-23T06:40:08;99506.95;;;11.72;75.61
41706;BME280;27385;51.096;17.190;2023-03-23T06:42:41;99504.53;;;11.83;75.69
41706;BME280;27385;51.096;17.190;2023-03-23T06:45:14;99507.29;;;11.93;75.59
41706;BME280;27385;51.096;17.190;2023-03-23T06:47:47;99505.17;;;12.03;75.57
41706;BME280;27385;51.096;17.190;2023-03-23T06:50:19;99505.13;;;12.15;75.02
41706;BME280;27385;51.096;17.190;2023-03-23T06:52:52;99506.16;;;12.27;75.02
41706;BME280;27385;51.096;17.190;2023-03-23T06:55:24;99509.73;;;12.38;74.68
41706;BME280;27385;51.096;17.190;2023-03-23T06:57:56;99512.67;;;12.50;74.16
41706;BME280;27385;51.096;17.190;2023-03-23T07:00:29;99507.77;;;12.59;73.97
41706;BME280;27385;51.096;17.190;2023-03-23T07:03:04;99505.98;;;12.67;73.99
41706;BME280;27385;51.096;17.190;2023-03-23T07:05:36;99505.01;;;12.76;73.76
41706;BME280;27385;51.096;17.190;2023-03-23T07:08:08;99507.69;;;12.84;73.55
41706;BME280;27385;51.096;17.190;2023-03-23T07:10:40;99505.37;;;12.93;73.21
41706;BME280;27385;51.096;17.190;2023-03-23T07:13:12;99500.38;;;13.03;73.08
41706;BME280;27385;51.096;17.190;2023-03-23T07:15:44;99503.11;;;13.13;72.59
41706;BME280;27385;51.096;17.190;2023-03-23T07:18:16;99503.48;;;13.23;72.11
41706;BME280;27385;51.096;17.190;2023-03-23T07:20:50;99501.41;;;13.33;71.47
41706;BME280;27385;51.096;17.190;2023-03-23T07:23:23;99500.91;;;13.44;71.32
41706;BME280;27385;51.096;17.190;2023-03-23T07:25:55;99504.85;;;13.53;71.17
41706;BME280;27385;51.096;17.190;2023-03-23T07:28:28;99497.73;;;13.61;70.91
41706;BME280;27385;51.096;17.190;2023-03-23T07:31:00;99493.98;;;13.71;70.21
41706;BME280;27385;51.096;17.190;2023-03-23T07:33:32;99496.17;;;13.80;69.59
41706;BME280;27385;51.096;17.190;2023-03-23T07:36:07;99500.55;;;13.85;69.54
41706;BME280;27385;51.096;17.190;2023-03-23T07:38:39;99497.83;;;13.88;69.86
41706;BME280;27385;51.096;17.190;2023-03-23T07:41:12;99493.85;;;13.88;69.37
41706;BME280;27385;51.096;17.190;2023-03-23T07:43:44;99496.96;;;13.88;69.02
41706;BME280;27385;51.096;17.190;2023-03-23T07:46:17;99496.72;;;13.85;69.16
41706;BME280;27385;51.096;17.190;2023-03-23T07:48:49;99499.14;;;13.82;68.69
41706;BME280;27385;51.096;17.190;2023-03-23T07:51:21;99497.77;;;13.80;68.90
41706;BME280;27385;51.096;17.190;2023-03-23T07:53:52;99498.08;;;13.79;69.13
41706;BME280;27385;51.096;17.190;2023-03-23T07:56:25;99501.55;;;13.80;68.90
41706;BME280;27385;51.096;17.190;2023-03-23T07:58:56;99501.21;;;13.84;68.78
41706;BME280;27385;51.096;17.190;2023-03-23T08:01:27;99500.56;;;13.90;68.89
41706;BME280;27385;51.096;17.190;2023-03-23T08:03:58;99504.11;;;14.01;69.20
41706;BME280;27385;51.096;17.190;2023-03-23T08:06:31;99498.56;;;14.15;68.92
41706;BME280;27385;51.096;17.190;2023-03-23T08:09:03;99495.52;;;14.26;68.63
41706;BME280;27385;51.096;17.190;2023-03-23T08:11:36;99489.15;;;14.33;68.09
41706;BME280;27385;51.096;17.190;2023-03-23T08:14:08;99484.68;;;14.37;68.17
41706;BME280;27385;51.096;17.190;2023-03-23T08:16:40;99484.90;;;14.41;67.97
41706;BME280;27385;51.096;17.190;2023-03-23T08:19:11;99480.98;;;14.45;68.09
41706;BME280;27385;51.096;17.190;2023-03-23T08:21:42;99477.89;;;14.48;67.88
41706;BME280;27385;51.096;17.190;2023-03-23T08:24:13;99469.52;;;14.53;67.73
41706;BME280;27385;51.096;17.190;2023-03-23T08:26:44;99467.15;;;14.55;67.40
41706;BME280;27385;51.096;17.190;2023-03-23T08:29:15;99469.36;;;14.60;67.42
41706;BME280;27385;51.096;17.190;2023-03-23T08:31:47;99466.39;;;14.65;67.38
41706;BME280;27385;51.096;17.190;2023-03-23T08:34:18;99456.27;;;14.70;67.17
41706;BME280;27385;51.096;17.190;2023-03-23T08:36:49;99453.27;;;14.76;66.56
41706;BME280;27385;51.096;17.190;2023-03-23T08:39:20;99451.93;;;14.81;66.26
41706;BME280;27385;51.096;17.190;2023-03-23T08:41:52;99453.80;;;14.87;65.54
41706;BME280;27385;51.096;17.190;2023-03-23T08:44:23;99457.46;;;14.94;65.37
41706;BME280;27385;51.096;17.190;2023-03-23T08:46:54;99466.17;;;15.05;65.25
41706;BME280;27385;51.096;17.190;2023-03-23T08:49:26;99475.05;;;15.19;65.20
41706;BME280;27385;51.096;17.190;2023-03-23T08:51:58;99474.49;;;15.41;65.06
41706;BME280;27385;51.096;17.190;2023-03-23T08:54:29;99468.20;;;15.63;64.19
41706;BME280;27385;51.096;17.190;2023-03-23T08:57:02;99476.15;;;15.78;64.09
41706;BME280;27385;51.096;17.190;2023-03-23T08:59:33;99481.20;;;15.89;63.43
41706;BME280;27385;51.096;17.190;2023-03-23T09:02:04;99488.13;;;15.96;62.83
41706;BME280;27385;51.096;17.190;2023-03-23T09:04:36;99491.48;;;16.00;62.24
41706;BME280;27385;51.096;17.190;2023-03-23T09:07:07;99485.06;;;16.09;62.62
41706;BME280;27385;51.096;17.190;2023-03-23T09:09:39;99490.74;;;16.19;62.33
41706;BME280;27385;51.096;17.190;2023-03-23T09:12:10;99494.31;;;16.27;62.26
41706;BME280;27385;51.096;17.190;2023-03-23T09:14:42;99496.86;;;16.34;60.64
41706;BME280;27385;51.096;17.190;2023-03-23T09:17:15;99499.02;;;16.41;59.08
41706;BME280;27385;51.096;17.190;2023-03-23T09:19:45;99494.92;;;16.49;59.65
41706;BME280;27385;51.096;17.190;2023-03-23T09:22:16;99493.29;;;16.56;58.17
41706;BME280;27385;51.096;17.190;2023-03-23T09:24:49;99499.42;;;16.60;57.85
41706;BME280;27385;51.096;17.190;2023-03-23T09:27:20;99499.61;;;16.64;57.15
41706;BME280;27385;51.096;17.190;2023-03-23T09:29:52;99492.58;;;16.67;56.92
41706;BME280;27385;51.096;17.190;2023-03-23T09:32:25;99487.08;;;16.68;56.25
41706;BME280;27385;51.096;17.190;2023-03-23T09:34:56;99488.88;;;16.73;57.19
41706;BME280;27385;51.096;17.190;2023-03-23T09:37:28;99489.95;;;16.79;57.23
41706;BME280;27385;51.096;17.190;2023-03-23T09:39:59;99494.80;;;16.81;56.50
41706;BME280;27385;51.096;17.190;2023-03-23T09:42:40;99490.83;;;16.80;56.42
41706;BME280;27385;51.096;17.190;2023-03-23T09:45:19;99490.80;;;16.78;56.61
41706;BME280;27385;51.096;17.190;2023-03-23T09:48:03;99494.84;;;16.79;56.32
41706;BME280;27385;51.096;17.190;2023-03-23T09:50:40;99495.98;;;16.80;56.21
41706;BME280;27385;51.096;17.190;2023-03-23T09:53:19;99498.46;;;16.85;55.39
41706;BME280;27385;51.096;17.190;2023-03-23T09:55:51;99493.61;;;16.95;55.26
41706;BME280;27385;51.096;17.190;2023-03-23T09:58:26;99497.33;;;17.05;54.86
41706;BME280;27385;51.096;17.190;2023-03-23T10:01:00;99504.35;;;17.16;54.46
41706;BME280;27385;51.096;17.190;2023-03-23T10:03:37;99497.73;;;17.24;54.04
41706;BME280;27385;51.096;17.190;2023-03-23T10:06:11;99491.79;;;17.29;53.64
41706;BME280;27385;51.096;17.190;2023-03-23T10:08:46;99493.36;;;17.32;54.41
41706;BME280;27385;51.096;17.190;2023-03-23T10:11:23;99494.25;;;17.36;54.13
41706;BME280;27385;51.096;17.190;2023-03-23T10:14:09;99497.34;;;17.37;53.37
41706;BME280;27385;51.096;17.190;2023-03-23T10:16:45;99495.89;;;17.38;54.01
41706;BME280;27385;51.096;17.190;2023-03-23T10:19:24;99495.31;;;17.44;53.72
41706;BME280;27385;51.096;17.190;2023-03-23T10:22:02;99490.59;;;17.47;53.18
41706;BME280;27385;51.096;17.190;2023-03-23T10:24:39;99491.16;;;17.49;53.42
41706;BME280;27385;51.096;17.190;2023-03-23T10:27:22;99493.48;;;17.57;53.33
41706;BME280;27385;51.096;17.190;2023-03-23T10:30:00;99497.05;;;17.61;52.48
41706;BME280;27385;51.096;17.190;2023-03-23T10:32:46;99488.40;;;17.62;52.98
41706;BME280;27385;51.096;17.190;2023-03-23T10:35:23;99482.92;;;17.69;52.40
41706;BME280;27385;51.096;17.190;2023-03-23T10:37:59;99495.52;;;17.81;51.87
41706;BME280;27385;51.096;17.190;2023-03-23T10:40:32;99490.77;;;17.94;51.43
41706;BME280;27385;51.096;17.190;2023-03-23T10:43:04;99496.91;;;17.99;50.99
41706;BME280;27385;51.096;17.190;2023-03-23T10:45:35;99510.27;;;17.96;50.73
41706;BME280;27385;51.096;17.190;2023-03-23T10:48:11;99509.05;;;17.92;50.41
41706;BME280;27385;51.096;17.190;2023-03-23T10:50:46;99507.81;;;17.85;50.28
41706;BME280;27385;51.096;17.190;2023-03-23T10:53:21;99507.33;;;17.81;50.68
41706;BME280;27385;51.096;17.190;2023-03-23T10:55:53;99510.63;;;17.76;49.93
41706;BME280;27385;51.096;17.190;2023-03-23T10:58:27;99516.48;;;17.68;49.93
41706;BME280;27385;51.096;17.190;2023-03-23T11:01:00;99522.61;;;17.62;50.25
41706;BME280;27385;51.096;17.190;2023-03-23T11:03:41;99523.41;;;17.56;49.77
41706;BME280;27385;51.096;17.190;2023-03-23T11:06:20;99517.10;;;17.51;50.29
41706;BME280;27385;51.096;17.190;2023-03-23T11:08:55;99520.38;;;17.52;50.49
41706;BME280;27385;51.096;17.190;2023-03-23T11:11:29;99522.12;;;17.56;50.38
41706;BME280;27385;51.096;17.190;2023-03-23T11:14:12;99522.61;;;17.62;49.97
41706;BME280;27385;51.096;17.190;2023-03-23T11:16:53;99523.75;;;17.68;49.93
41706;BME280;27385;51.096;17.190;2023-03-23T11:19:26;99520.54;;;17.71;49.95
41706;BME280;27385;51.096;17.190;2023-03-23T11:22:08;99530.32;;;17.70;49.55
41706;BME280;27385;51.096;17.190;2023-03-23T11:24:44;99526.07;;;17.67;49.88
41706;BME280;27385;51.096;17.190;2023-03-23T11:27:16;99524.08;;;17.66;50.22
41706;BME280;27385;51.096;17.190;2023-03-23T11:29:52;99522.77;;;17.69;50.02
41706;BME280;27385;51.096;17.190;2023-03-23T11:32:26;99521.45;;;17.71;49.58
41706;BME280;27385;51.096;17.190;2023-03-23T11:35:01;99524.74;;;17.73;49.50
41706;BME280;27385;51.096;17.190;2023-03-23T11:37:37;99527.90;;;17.75;49.28
41706;BME280;27385;51.096;17.190;2023-03-23T11:40:18;99525.78;;;17.78;49.38
41706;BME280;27385;51.096;17.190;2023-03-23T11:42:57;99524.88;;;17.81;49.48
41706;BME280;27385;51.096;17.190;2023-03-23T11:45:34;99524.95;;;17.83;48.96
41706;BME280;27385;51.096;17.190;2023-03-23T11:48:18;99527.65;;;17.84;48.77
41706;BME280;27385;51.096;17.190;2023-03-23T11:50:53;99525.98;;;17.83;48.79
41706;BME280;27385;51.096;17.190;2023-03-23T11:53:35;99530.30;;;17.82;48.41
41706;BME280;27385;51.096;17.190;2023-03-23T11:56:14;99526.44;;;17.81;48.55
41706;BME280;27385;51.096;17.190;2023-03-23T11:58:47;99531.92;;;17.81;48.51
41706;BME280;27385;51.096;17.190;2023-03-23T12:01:35;99525.67;;;17.81;48.65
41706;BME280;27385;51.096;17.190;2023-03-23T12:04:24;99524.52;;;17.82;48.52
41706;BME280;27385;51.096;17.190;2023-03-23T12:07:08;99526.47;;;17.79;48.55
41706;BME280;27385;51.096;17.190;2023-03-23T12:09:47;99530.98;;;17.77;48.70
41706;BME280;27385;51.096;17.190;2023-03-23T12:12:26;99529.07;;;17.75;48.74
41706;BME280;27385;51.096;17.190;2023-03-23T12:15:07;99538.88;;;17.75;48.94
41706;BME280;27385;51.096;17.190;2023-03-23T12:17:48;99530.11;;;17.72;48.51
41706;BME280;27385;51.096;17.190;2023-03-23T12:20:31;99534.48;;;17.66;48.67
41706;BME280;27385;51.096;17.190;2023-03-23T12:23:14;99534.63;;;17.60;48.49
41706;BME280;27385;51.096;17.190;2023-03-23T12:32:29;99535.55;;;17.49;49.07
41706;BME280;27385;51.096;17.190;2023-03-23T12:35:13;99538.24;;;17.51;49.09
41706;BME280;27385;51.096;17.190;2023-03-23T12:37:56;99528.80;;;17.51;49.20
41706;BME280;27385;51.096;17.190;2023-03-23T12:40:53;99530.42;;;17.52;48.87
41706;BME280;27385;51.096;17.190;2023-03-23T12:43:34;99524.63;;;17.52;48.87
41706;BME280;27385;51.096;17.190;2023-03-23T12:46:22;99524.78;;;17.52;49.02
41706;BME280;27385;51.096;17.190;2023-03-23T12:49:00;99527.80;;;17.55;49.21
41706;BME280;27385;51.096;17.190;2023-03-23T12:51:37;99523.09;;;17.59;49.19
41706;BME280;27385;51.096;17.190;2023-03-23T12:54:16;99520.83;;;17.62;49.19
41706;BME280;27385;51.096;17.190;2023-03-23T12:56:53;99517.02;;;17.64;49.05
41706;BME280;27385;51.096;17.190;2023-03-23T12:59:30;99518.68;;;17.64;48.92
41706;BME280;27385;51.096;17.190;2023-03-23T13:02:13;99517.80;;;17.62;49.14
41706;BME280;27385;51.096;17.190;2023-03-23T13:04:48;99522.24;;;17.60;49.12
41706;BME280;27385;51.096;17.190;2023-03-23T13:07:26;99527.81;;;17.59;48.84
41706;BME280;27385;51.096;17.190;2023-03-23T13:10:05;99525.16;;;17.56;48.89
41706;BME280;27385;51.096;17.190;2023-03-23T13:12:38;99521.85;;;17.52;48.88
41706;BME280;27385;51.096;17.190;2023-03-23T13:15:26;99520.31;;;17.49;48.99
41706;BME280;27385;51.096;17.190;2023-03-23T13:18:02;99523.56;;;17.48;49.04
41706;BME280;27385;51.096;17.190;2023-03-23T13:20:51;99521.58;;;17.46;49.16
41706;BME280;27385;51.096;17.190;2023-03-23T13:23:28;99522.80;;;17.45;49.22
41706;BME280;27385;51.096;17.190;2023-03-23T13:26:02;99521.73;;;17.44;49.57
41706;BME280;27385;51.096;17.190;2023-03-23T13:28:47;99523.90;;;17.46;49.71
41706;BME280;27385;51.096;17.190;2023-03-23T13:31:27;99528.40;;;17.47;49.77
41706;BME280;27385;51.096;17.190;2023-03-23T13:34:05;99521.77;;;17.48;49.57
41706;BME280;27385;51.096;17.190;2023-03-23T13:36:37;99514.61;;;17.50;49.91
41706;BME280;27385;51.096;17.190;2023-03-23T13:39:19;99510.73;;;17.54;50.18
41706;BME280;27385;51.096;17.190;2023-03-23T13:42:04;99512.78;;;17.59;50.08
41706;BME280;27385;51.096;17.190;2023-03-23T13:44:53;99511.99;;;17.62;50.04
41706;BME280;27385;51.096;17.190;2023-03-23T13:47:35;99515.24;;;17.66;50.07